Time;durP1;ratioP1;P1;durP2;ratioP2;P2;SDS_P1;SDS_P2;PMS_P1;PMS_P2;Temp;Humidity;BMP_temperature;BMP_pressure;BME280_temperature;BME280_humidity;BME280_pressure;Samples;Min_cycle;Max_cycle;Signal;HPM_P1;HPM_P2
2023/05/13 00:01:51;;;;;;;0.68;0.68;;;11.10;99.90;;;;;;5033798;28;20451;-76
2023/05/13 00:04:16;;;;;;;0.40;0.40;;;11.00;99.90;;;;;;5036781;28;20126;-79
2023/05/13 00:06:42;;;;;;;0.52;0.52;;;11.10;99.90;;;;;;5056915;28;20051;-76
2023/05/13 00:09:08;;;;;;;0.38;0.38;;;11.00;99.90;;;;;;5051487;28;20040;-79
2023/05/13 00:11:34;;;;;;;0.60;0.60;;;11.00;99.90;;;;;;5041353;28;20187;-79
2023/05/13 00:14:00;;;;;;;0.65;0.65;;;11.00;99.90;;;;;;5053763;28;20062;-76
2023/05/13 00:16:27;;;;;;;2.35;0.82;;;11.00;99.90;;;;;;5052510;28;20541;-76
2023/05/13 00:18:54;;;;;;;0.50;0.50;;;11.10;99.90;;;;;;5051214;28;20476;-77
2023/05/13 00:21:20;;;;;;;0.40;0.40;;;11.00;99.90;;;;;;5061487;28;20053;-80
2023/05/13 00:23:46;;;;;;;0.50;0.50;;;11.00;99.90;;;;;;5057886;28;20037;-77
2023/05/13 00:26:11;;;;;;;0.40;0.40;;;10.90;99.90;;;;;;5036551;28;20044;-77
2023/05/13 00:28:37;;;;;;;0.43;0.43;;;10.80;99.90;;;;;;5049848;28;20048;-80
2023/05/13 00:31:02;;;;;;;1.45;0.82;;;10.80;99.90;;;;;;5038913;28;20040;-80
2023/05/13 00:33:28;;;;;;;0.47;0.47;;;10.80;99.90;;;;;;5050825;28;20044;-77
2023/05/13 00:35:54;;;;;;;0.38;0.38;;;10.80;99.90;;;;;;5058271;28;20080;-77
2023/05/13 00:38:19;;;;;;;0.32;0.32;;;10.70;99.90;;;;;;5041964;28;20435;-76
2023/05/13 00:40:46;;;;;;;0.38;0.38;;;10.60;99.90;;;;;;5054903;28;20041;-79
2023/05/13 00:43:12;;;;;;;0.50;0.50;;;10.60;99.90;;;;;;5032520;28;20128;-78
2023/05/13 00:45:37;;;;;;;0.50;0.50;;;10.60;99.90;;;;;;5035219;28;20128;-81
2023/05/13 00:48:05;;;;;;;0.50;0.50;;;10.80;99.90;;;;;;5053545;28;20375;-75
2023/05/13 00:50:32;;;;;;;0.38;0.38;;;10.60;99.90;;;;;;5050936;28;20102;-80
2023/05/13 00:52:58;;;;;;;0.50;0.50;;;10.60;99.90;;;;;;5059416;28;20389;-76
2023/05/13 00:55:25;;;;;;;0.80;0.80;;;10.50;99.90;;;;;;5059094;28;20048;-77
2023/05/13 00:57:51;;;;;;;0.30;0.30;;;10.50;99.90;;;;;;5053899;28;20055;-78
2023/05/13 01:00:17;;;;;;;0.90;0.90;;;10.50;99.90;;;;;;5073483;28;20045;-76
2023/05/13 01:02:42;;;;;;;;;;;10.60;99.90;;;;;;5058184;28;20382;-76
2023/05/13 01:05:36;;;;;;;0.30;0.30;;;10.50;99.90;;;;;;5054746;28;19920;-79
2023/05/13 01:08:10;;;;;;;0.50;0.50;;;10.60;99.90;;;;;;5040650;28;20090;-76
2023/05/13 01:10:43;;;;;;;0.60;0.60;;;10.50;99.90;;;;;;5060166;28;20535;-78
2023/05/13 01:13:12;;;;;;;0.47;0.47;;;10.50;99.90;;;;;;5054484;28;20505;-75
2023/05/13 01:15:44;;;;;;;0.68;0.68;;;10.40;99.90;;;;;;5061375;28;20094;-77
2023/05/13 01:18:17;;;;;;;0.40;0.40;;;10.30;99.90;;;;;;5054769;28;20124;-79
2023/05/13 01:20:44;;;;;;;0.30;0.30;;;10.30;99.90;;;;;;5054671;28;20138;-78
2023/05/13 01:23:11;;;;;;;0.50;0.50;;;10.30;99.90;;;;;;5055639;28;20385;-79
2023/05/13 01:25:38;;;;;;;0.70;0.70;;;10.30;99.90;;;;;;5054721;28;20062;-79
2023/05/13 01:28:05;;;;;;;0.40;0.40;;;10.40;99.90;;;;;;5040348;28;20140;-78
2023/05/13 01:30:31;;;;;;;0.50;0.50;;;10.40;99.90;;;;;;5059125;28;20037;-77
2023/05/13 01:32:57;;;;;;;0.47;0.47;;;10.30;99.90;;;;;;5058143;28;20063;-78
2023/05/13 01:35:25;;;;;;;0.35;0.35;;;10.30;99.90;;;;;;5059463;28;20045;-78
2023/05/13 01:37:52;;;;;;;0.45;0.45;;;10.30;99.90;;;;;;5047005;28;20060;-75
2023/05/13 01:40:19;;;;;;;0.50;0.50;;;10.30;99.90;;;;;;5061822;28;20047;-77
2023/05/13 01:42:44;;;;;;;0.45;0.45;;;10.30;99.90;;;;;;5060978;28;20040;-77
2023/05/13 01:45:10;;;;;;;0.30;0.30;;;10.30;99.90;;;;;;5064658;28;20044;-78
2023/05/13 01:47:36;;;;;;;0.55;0.55;;;10.10;99.90;;;;;;5058754;28;20392;-78
2023/05/13 01:50:02;;;;;;;0.50;0.50;;;10.20;99.90;;;;;;5048601;28;20062;-79
2023/05/13 01:52:27;;;;;;;0.50;0.50;;;10.20;99.90;;;;;;5060109;28;20087;-78
2023/05/13 01:54:53;;;;;;;0.98;0.73;;;10.20;99.90;;;;;;5042080;28;20051;-81
2023/05/13 01:57:19;;;;;;;2.28;0.93;;;10.20;99.90;;;;;;5047107;28;20045;-76
2023/05/13 01:59:44;;;;;;;0.50;0.50;;;10.10;99.90;;;;;;5045777;28;20044;-77
2023/05/13 02:02:10;;;;;;;1.05;0.70;;;10.10;99.90;;;;;;5051709;28;20072;-76
2023/05/13 02:04:35;;;;;;;0.45;0.45;;;10.30;99.90;;;;;;5064423;28;20036;-80
2023/05/13 02:07:01;;;;;;;2.40;1.75;;;10.10;99.90;;;;;;5053302;28;20040;-75
2023/05/13 02:09:27;;;;;;;0.40;0.40;;;10.10;99.90;;;;;;5074474;28;20032;-77
2023/05/13 02:11:52;;;;;;;1.67;1.58;;;10.20;99.90;;;;;;5029835;28;20037;-76
2023/05/13 02:14:19;;;;;;;0.50;0.50;;;10.10;99.90;;;;;;5042110;28;20045;-76
2023/05/13 02:16:45;;;;;;;0.57;0.57;;;10.00;99.90;;;;;;5054045;28;20052;-78
2023/05/13 02:19:10;;;;;;;0.30;0.30;;;10.00;99.90;;;;;;5055095;28;20053;-78
2023/05/13 02:21:36;;;;;;;0.38;0.38;;;10.00;99.90;;;;;;5056621;28;20040;-78
2023/05/13 02:24:02;;;;;;;0.35;0.35;;;10.10;99.90;;;;;;5054607;28;20094;-79
2023/05/13 02:26:28;;;;;;;0.40;0.40;;;9.90;99.90;;;;;;5056802;28;20036;-76
2023/05/13 02:28:53;;;;;;;0.35;0.35;;;9.90;99.90;;;;;;5061326;28;20044;-80
2023/05/13 02:31:19;;;;;;;0.40;0.40;;;9.90;99.90;;;;;;5052724;28;20044;-77
2023/05/13 02:33:45;;;;;;;0.45;0.45;;;10.00;99.90;;;;;;5041399;28;20099;-79
2023/05/13 02:36:10;;;;;;;0.38;0.38;;;9.80;99.90;;;;;;5055027;28;20367;-79
2023/05/13 02:38:36;;;;;;;0.50;0.50;;;9.80;99.90;;;;;;5062691;28;20036;-79
2023/05/13 02:41:02;;;;;;;0.95;0.95;;;9.80;99.90;;;;;;5058048;28;20090;-80
2023/05/13 02:43:28;;;;;;;0.85;0.77;;;9.70;99.90;;;;;;5057354;28;20033;-77
2023/05/13 02:45:54;;;;;;;0.50;0.50;;;9.70;99.90;;;;;;5054108;28;20501;-78
2023/05/13 02:48:20;;;;;;;0.95;0.95;;;9.60;99.90;;;;;;5030450;28;20052;-77
2023/05/13 02:50:46;;;;;;;0.45;0.45;;;9.50;99.90;;;;;;5055331;28;20044;-79
2023/05/13 02:53:11;;;;;;;0.47;0.47;;;9.60;99.90;;;;;;5058059;28;20048;-77
2023/05/13 02:55:37;;;;;;;1.30;1.15;;;9.40;99.90;;;;;;5057802;28;20044;-79
2023/05/13 02:58:03;;;;;;;0.47;0.47;;;9.30;99.90;;;;;;5056593;28;20136;-80
2023/05/13 03:00:29;;;;;;;;;;;9.20;99.90;;;;;;5059141;28;20051;-77
2023/05/13 03:02:55;;;;;;;2.30;1.08;;;9.20;99.90;;;;;;5062042;28;19924;-78
2023/05/13 03:05:20;;;;;;;0.45;0.45;;;9.10;99.90;;;;;;5038468;28;20414;-80
2023/05/13 03:07:46;;;;;;;0.50;0.50;;;9.10;99.90;;;;;;5049705;28;20107;-77
2023/05/13 03:10:12;;;;;;;0.45;0.45;;;9.10;99.90;;;;;;5028874;28;20037;-80
2023/05/13 03:12:38;;;;;;;0.50;0.50;;;9.00;99.90;;;;;;5052221;28;20037;-79
2023/05/13 03:15:04;;;;;;;0.70;0.70;;;9.20;99.90;;;;;;5036869;28;20047;-77
2023/05/13 03:17:30;;;;;;;1.08;1.08;;;9.00;99.90;;;;;;5055113;28;20063;-79
2023/05/13 03:19:56;;;;;;;0.47;0.47;;;8.90;99.90;;;;;;5022651;28;20056;-80
2023/05/13 03:22:22;;;;;;;0.75;0.75;;;9.00;99.90;;;;;;5055704;28;20123;-77
2023/05/13 03:24:48;;;;;;;0.75;0.70;;;9.00;99.90;;;;;;5054043;28;20127;-79
2023/05/13 03:27:13;;;;;;;0.60;0.60;;;9.10;99.90;;;;;;5058372;28;20043;-78
2023/05/13 03:29:39;;;;;;;0.40;0.40;;;8.90;99.90;;;;;;5040685;28;20047;-78
2023/05/13 03:32:05;;;;;;;0.70;0.70;;;8.80;99.90;;;;;;5037498;28;20048;-78
2023/05/13 03:34:32;;;;;;;0.40;0.40;;;8.80;99.90;;;;;;5054785;28;20048;-78
2023/05/13 03:36:58;;;;;;;0.52;0.45;;;8.80;99.90;;;;;;5041942;28;20041;-79
2023/05/13 03:39:25;;;;;;;0.50;0.50;;;8.80;99.90;;;;;;5047625;28;20379;-76
2023/05/13 03:41:51;;;;;;;0.50;0.50;;;8.70;99.90;;;;;;5057479;28;20049;-79
2023/05/13 03:44:17;;;;;;;;;;;9.00;99.90;;;;;;5032326;28;20033;-78
2023/05/13 03:46:42;;;;;;;0.40;0.40;;;9.00;99.90;;;;;;5054774;28;19970;-78
2023/05/13 03:49:08;;;;;;;0.60;0.60;;;9.20;99.90;;;;;;5046555;28;20068;-76
2023/05/13 03:51:34;;;;;;;2.40;1.02;;;9.30;99.90;;;;;;5057823;28;20045;-76
2023/05/13 03:54:00;;;;;;;2.40;0.65;;;9.40;99.90;;;;;;5062332;28;20032;-76
2023/05/13 03:56:26;;;;;;;0.40;0.40;;;9.50;99.90;;;;;;5048316;28;20037;-77
2023/05/13 03:58:52;;;;;;;1.27;1.27;;;9.50;99.90;;;;;;5054356;28;20410;-77
2023/05/13 04:01:18;;;;;;;0.40;0.40;;;9.50;99.90;;;;;;5061556;28;20040;-76
2023/05/13 04:03:45;;;;;;;1.05;1.05;;;9.60;99.90;;;;;;5043959;28;20037;-77
2023/05/13 04:06:12;;;;;;;0.40;0.40;;;9.60;99.90;;;;;;5057828;28;20037;-77
2023/05/13 04:08:39;;;;;;;0.70;0.70;;;9.60;99.90;;;;;;5049798;28;20053;-79
2023/05/13 04:11:04;;;;;;;;;;;9.70;99.90;;;;;;5059785;28;20044;-80
2023/05/13 04:13:33;;;;;;;0.45;0.45;;;9.80;99.90;;;;;;5071249;28;19966;-79
2023/05/13 04:15:58;;;;;;;0.45;0.45;;;9.80;99.90;;;;;;5057067;28;20486;-79
2023/05/13 04:18:24;;;;;;;0.50;0.50;;;9.80;99.90;;;;;;5053931;28;20082;-77
2023/05/13 04:20:50;;;;;;;0.45;0.45;;;9.80;99.90;;;;;;5033733;28;20052;-77
2023/05/13 04:23:15;;;;;;;0.50;0.50;;;9.80;99.90;;;;;;5061153;28;20072;-77
2023/05/13 04:25:41;;;;;;;0.63;0.63;;;9.80;99.90;;;;;;5042516;28;20545;-77
2023/05/13 04:28:07;;;;;;;0.25;0.25;;;10.10;99.90;;;;;;5046910;28;20041;-78
2023/05/13 04:30:34;;;;;;;0.30;0.30;;;10.10;99.90;;;;;;5053481;28;20044;-77
2023/05/13 04:33:00;;;;;;;0.30;0.30;;;10.00;99.90;;;;;;5056237;28;20044;-78
2023/05/13 04:35:26;;;;;;;0.35;0.35;;;10.00;99.90;;;;;;5062341;28;20048;-78
2023/05/13 04:37:51;;;;;;;0.50;0.50;;;10.10;99.90;;;;;;5056976;28;20059;-79
2023/05/13 04:40:17;;;;;;;0.40;0.40;;;10.10;99.90;;;;;;5028779;28;20052;-78
2023/05/13 04:42:43;;;;;;;0.95;0.95;;;10.20;99.90;;;;;;5038966;28;20559;-78
2023/05/13 04:45:09;;;;;;;0.45;0.45;;;10.30;99.90;;;;;;5063155;28;20037;-80
2023/05/13 04:47:36;;;;;;;0.50;0.50;;;10.30;99.90;;;;;;5059364;28;20393;-75
2023/05/13 04:50:02;;;;;;;2.35;0.85;;;10.40;99.90;;;;;;5046655;28;20048;-76
2023/05/13 04:52:28;;;;;;;0.88;0.88;;;10.40;99.90;;;;;;5039634;28;20037;-80
2023/05/13 04:54:54;;;;;;;0.60;0.60;;;10.40;99.90;;;;;;5044963;28;20496;-73
2023/05/13 04:57:19;;;;;;;0.50;0.50;;;10.50;99.90;;;;;;5052503;28;20089;-79
2023/05/13 04:59:45;;;;;;;0.50;0.50;;;10.50;99.90;;;;;;5037179;28;20044;-76
2023/05/13 05:02:11;;;;;;;0.70;0.70;;;10.60;99.90;;;;;;5042568;28;20143;-78
2023/05/13 05:04:36;;;;;;;0.55;0.55;;;10.70;99.90;;;;;;5032138;28;20032;-79
2023/05/13 05:07:02;;;;;;;1.08;0.82;;;10.80;99.90;;;;;;5052384;28;20242;-77
2023/05/13 05:09:29;;;;;;;0.40;0.40;;;10.80;99.90;;;;;;5059636;28;20128;-79
2023/05/13 05:11:54;;;;;;;0.30;0.30;;;10.90;99.90;;;;;;5051723;28;20044;-74
2023/05/13 05:14:20;;;;;;;0.47;0.47;;;10.90;99.90;;;;;;5047022;28;20441;-75
2023/05/13 05:16:46;;;;;;;0.50;0.50;;;11.00;99.90;;;;;;5055366;28;20562;-76
2023/05/13 05:19:11;;;;;;;0.40;0.40;;;11.00;99.90;;;;;;5062147;28;20052;-75
2023/05/13 05:21:38;;;;;;;0.52;0.52;;;11.10;99.90;;;;;;5039211;28;20127;-78
2023/05/13 05:24:05;;;;;;;0.32;0.32;;;11.10;99.90;;;;;;5012533;28;20040;-78
2023/05/13 05:26:30;;;;;;;0.40;0.40;;;11.10;99.90;;;;;;5041591;28;20443;-78
2023/05/13 05:28:56;;;;;;;0.30;0.30;;;11.20;99.90;;;;;;5060477;28;20044;-77
2023/05/13 05:31:22;;;;;;;0.20;0.20;;;11.30;99.90;;;;;;5045454;28;20698;-77
2023/05/13 05:33:47;;;;;;;0.82;0.82;;;11.40;99.90;;;;;;5038170;28;20508;-77
2023/05/13 05:36:13;;;;;;;0.38;0.38;;;11.80;99.90;;;;;;5056815;28;20048;-77
2023/05/13 05:38:40;;;;;;;1.40;0.63;;;11.60;99.90;;;;;;5021929;28;20045;-78
2023/05/13 05:41:06;;;;;;;0.40;0.40;;;11.70;99.90;;;;;;5039827;28;20446;-79
2023/05/13 05:43:32;;;;;;;0.73;0.73;;;11.80;99.90;;;;;;5049710;28;20036;-79
2023/05/13 05:45:57;;;;;;;0.50;0.50;;;11.90;99.90;;;;;;5060106;28;20117;-78
2023/05/13 05:48:23;;;;;;;0.30;0.30;;;12.00;99.90;;;;;;5049905;28;20049;-77
2023/05/13 05:50:49;;;;;;;0.77;0.77;;;12.10;99.90;;;;;;5054032;28;20439;-78
2023/05/13 05:53:14;;;;;;;0.57;0.57;;;12.10;99.90;;;;;;5037875;28;20456;-78
2023/05/13 05:55:40;;;;;;;0.45;0.45;;;12.20;99.90;;;;;;5052238;28;20555;-77
2023/05/13 05:58:09;;;;;;;0.40;0.40;;;12.30;99.90;;;;;;5057941;28;20127;-77
2023/05/13 06:00:34;;;;;;;0.40;0.40;;;12.50;99.90;;;;;;5055305;28;20044;-77
2023/05/13 06:03:00;;;;;;;0.98;0.88;;;12.40;99.90;;;;;;5053898;28;20455;-77
2023/05/13 06:05:25;;;;;;;0.30;0.30;;;12.50;99.90;;;;;;5059580;28;20112;-76
2023/05/13 06:07:51;;;;;;;0.20;0.20;;;12.80;99.90;;;;;;5060572;28;20119;-76
2023/05/13 06:10:17;;;;;;;0.47;0.47;;;12.60;99.90;;;;;;5038270;28;20036;-77
2023/05/13 06:12:42;;;;;;;0.40;0.40;;;12.60;99.90;;;;;;5055782;28;20044;-77
2023/05/13 06:15:11;;;;;;;;;;;12.80;99.90;;;;;;5045806;28;20032;-78
2023/05/13 06:17:37;;;;;;;0.77;0.50;;;12.80;99.90;;;;;;5052880;28;19967;-77
2023/05/13 06:20:03;;;;;;;;;;;12.90;99.90;;;;;;5070013;28;20057;-78
2023/05/13 06:22:29;;;;;;;0.68;0.68;;;13.00;99.90;;;;;;5062463;28;19999;-78
2023/05/13 06:24:55;;;;;;;0.52;0.52;;;13.10;99.90;;;;;;5052409;28;20036;-77
2023/05/13 06:27:21;;;;;;;1.10;0.75;;;13.40;99.90;;;;;;5069006;28;20040;-77
2023/05/13 06:29:47;;;;;;;1.58;1.10;;;13.30;99.90;;;;;;5069918;28;20052;-78
2023/05/13 06:32:13;;;;;;;0.77;0.77;;;13.40;99.90;;;;;;5069911;28;20055;-77
2023/05/13 06:34:41;;;;;;;0.50;0.50;;;13.60;99.90;;;;;;5069314;28;20413;-77
2023/05/13 06:37:07;;;;;;;0.50;0.50;;;13.70;99.90;;;;;;5068635;28;20087;-78
2023/05/13 06:39:33;;;;;;;0.50;0.50;;;13.90;99.90;;;;;;5052631;28;20045;-78
2023/05/13 06:41:58;;;;;;;0.85;0.68;;;14.00;99.90;;;;;;5067885;28;20040;-78
2023/05/13 06:44:24;;;;;;;0.40;0.40;;;14.10;99.90;;;;;;5049066;28;20041;-78
2023/05/13 06:46:49;;;;;;;0.60;0.60;;;14.20;99.90;;;;;;5048659;28;20387;-79
2023/05/13 06:49:15;;;;;;;0.35;0.35;;;14.30;99.90;;;;;;5062843;28;20071;-78
2023/05/13 06:51:41;;;;;;;0.50;0.50;;;14.40;99.90;;;;;;5076818;28;20044;-77
2023/05/13 06:54:06;;;;;;;0.47;0.47;;;14.50;99.90;;;;;;5076674;28;20049;-78
2023/05/13 06:56:33;;;;;;;1.08;1.08;;;14.60;99.90;;;;;;5069443;28;20048;-78
2023/05/13 06:58:59;;;;;;;0.30;0.30;;;14.60;99.90;;;;;;5068874;28;20501;-77
2023/05/13 07:01:25;;;;;;;0.50;0.50;;;14.70;99.90;;;;;;5068792;28;20053;-78
2023/05/13 07:03:50;;;;;;;;;;;14.80;99.90;;;;;;5069051;28;20084;-78
2023/05/13 07:06:16;;;;;;;1.15;0.93;;;14.80;99.90;;;;;;5069095;28;19916;-78
2023/05/13 07:08:42;;;;;;;0.95;0.60;;;14.90;99.90;;;;;;5052602;28;20531;-77
2023/05/13 07:11:07;;;;;;;0.30;0.30;;;15.00;99.90;;;;;;5069241;28;20044;-78
2023/05/13 07:13:33;;;;;;;0.30;0.30;;;15.10;99.90;;;;;;5068646;28;20118;-77
2023/05/13 07:16:01;;;;;;;0.40;0.40;;;15.20;99.90;;;;;;5051319;28;20508;-78
2023/05/13 07:18:27;;;;;;;0.57;0.57;;;15.30;99.90;;;;;;5068586;28;20041;-78
2023/05/13 07:20:55;;;;;;;0.70;0.55;;;15.40;99.90;;;;;;5067965;28;20106;-77
2023/05/13 07:23:21;;;;;;;1.00;0.90;;;15.50;99.90;;;;;;5052035;28;20044;-77
2023/05/13 07:25:48;;;;;;;0.63;0.63;;;15.70;99.90;;;;;;5068274;28;20063;-78
2023/05/13 07:28:14;;;;;;;0.30;0.30;;;15.70;99.90;;;;;;5068550;28;20085;-78
2023/05/13 07:30:40;;;;;;;1.00;1.00;;;15.70;99.90;;;;;;5068688;28;20462;-77
2023/05/13 07:33:06;;;;;;;;;;;15.80;99.90;;;;;;5051729;28;20140;-78
2023/05/13 07:35:32;;;;;;;0.43;0.43;;;15.90;99.90;;;;;;5051428;28;19927;-78
2023/05/13 07:37:57;;;;;;;0.50;0.50;;;16.00;99.90;;;;;;5034406;28;20037;-78
2023/05/13 07:40:23;;;;;;;;;;;16.10;99.90;;;;;;5068810;28;20041;-78
2023/05/13 07:42:49;;;;;;;1.33;1.23;;;16.20;99.90;;;;;;5079473;28;19923;-78
2023/05/13 07:45:14;;;;;;;;;;;16.30;99.90;;;;;;5075082;28;20047;-78
2023/05/13 07:47:40;;;;;;;0.50;0.50;;;16.40;99.90;;;;;;5068354;28;20278;-78
2023/05/13 07:50:06;;;;;;;;;;;16.40;99.90;;;;;;5068477;28;20048;-78
2023/05/13 07:52:32;;;;;;;1.08;0.90;;;16.40;99.90;;;;;;5068523;28;19920;-78
2023/05/13 07:54:57;;;;;;;;;;;16.60;99.90;;;;;;5051934;28;20033;-79
2023/05/13 07:57:23;;;;;;;0.57;0.57;;;16.70;99.90;;;;;;5069597;28;19989;-78
2023/05/13 07:59:49;;;;;;;;;;;16.80;99.90;;;;;;5073290;28;20398;-77
2023/05/13 08:02:14;;;;;;;0.38;0.38;;;16.80;99.90;;;;;;5072393;28;20088;-78
2023/05/13 08:04:40;;;;;;;;;;;16.80;99.90;;;;;;5056312;28;20048;-77
2023/05/13 08:07:06;;;;;;;0.30;0.30;;;16.90;99.90;;;;;;5074347;28;20304;-78
2023/05/13 08:09:31;;;;;;;0.40;0.40;;;17.10;99.90;;;;;;5074708;28;20401;-78
2023/05/13 08:11:57;;;;;;;;;;;17.10;99.90;;;;;;5072968;28;20044;-78
2023/05/13 08:14:23;;;;;;;0.40;0.40;;;17.20;99.90;;;;;;5072961;28;20364;-78
2023/05/13 08:16:48;;;;;;;;;;;17.20;99.90;;;;;;5072676;28;20050;-77
2023/05/13 08:19:14;;;;;;;0.40;0.40;;;17.30;99.90;;;;;;5071895;28;19930;-78
2023/05/13 08:21:39;;;;;;;;;;;17.40;99.90;;;;;;5073142;28;20053;-79
2023/05/13 08:24:05;;;;;;;0.40;0.40;;;17.60;99.90;;;;;;5071885;28;19967;-78
2023/05/13 08:26:31;;;;;;;;;;;17.60;99.90;;;;;;5072597;28;20043;-78
2023/05/13 08:28:57;;;;;;;2.60;0.98;;;17.60;99.90;;;;;;5071913;28;19921;-78
2023/05/13 08:31:26;;;;;;;0.38;0.38;;;17.90;99.90;;;;;;5056219;28;20063;-77
2023/05/13 08:33:55;;;;;;;0.40;0.40;;;17.80;99.90;;;;;;5073236;28;20139;-78
2023/05/13 08:36:21;;;;;;;0.75;0.52;;;17.80;99.90;;;;;;5072011;28;20490;-77
2023/05/13 08:38:47;;;;;;;0.38;0.38;;;17.80;99.90;;;;;;5071982;28;20044;-77
2023/05/13 08:41:13;;;;;;;;;;;17.90;99.90;;;;;;5055049;28;20360;-78
2023/05/13 08:43:41;;;;;;;0.40;0.40;;;18.00;99.90;;;;;;5071511;28;19920;-78
2023/05/13 08:46:09;;;;;;;1.13;0.77;;;18.00;99.90;;;;;;5071216;28;20141;-78
2023/05/13 08:48:37;;;;;;;1.05;1.02;;;18.10;99.90;;;;;;5071281;28;20045;-77
2023/05/13 08:51:03;;;;;;;0.60;0.60;;;18.10;99.90;;;;;;5071335;28;20390;-78
2023/05/13 08:53:30;;;;;;;;;;;18.10;99.90;;;;;;5071218;28;20411;-78
2023/05/13 08:55:56;;;;;;;;;;;18.10;99.90;;;;;;5055201;28;19916;-77
2023/05/13 08:58:22;;;;;;;1.35;1.25;;;18.20;99.90;;;;;;5071154;28;20065;-77
2023/05/13 09:00:47;;;;;;;;;;;18.30;99.90;;;;;;5071702;28;20041;-78
2023/05/13 09:03:14;;;;;;;0.60;0.60;;;18.40;99.90;;;;;;5072166;28;19920;-78
2023/05/13 09:05:42;;;;;;;1.08;0.50;;;18.40;99.90;;;;;;5071794;28;20388;-78
2023/05/13 09:08:09;;;;;;;0.82;0.82;;;18.50;99.90;;;;;;5071219;28;20044;-78
2023/05/13 09:10:36;;;;;;;0.40;0.40;;;18.70;99.90;;;;;;5071863;28;20106;-78
2023/05/13 09:13:02;;;;;;;1.30;1.27;;;18.80;99.90;;;;;;5071214;28;20055;-78
2023/05/13 09:15:27;;;;;;;;;;;18.80;99.90;;;;;;5071421;28;20050;-78
2023/05/13 09:17:57;;;;;;;0.45;0.45;;;18.80;99.90;;;;;;5071877;28;19924;-78
2023/05/13 09:20:24;;;;;;;0.47;0.45;;;18.80;99.90;;;;;;5070726;28;20132;-78
2023/05/13 09:22:57;;;;;;;0.98;0.95;;;19.00;99.90;;;;;;5071122;28;20090;-78
2023/05/13 09:25:23;;;;;;;0.70;0.70;;;19.10;99.90;;;;;;5070657;28;20393;-78
2023/05/13 09:27:56;;;;;;;0.38;0.38;;;19.10;99.90;;;;;;5071505;28;20049;-78
2023/05/13 09:30:22;;;;;;;0.60;0.60;;;19.10;99.90;;;;;;5055249;28;20036;-78
2023/05/13 09:33:03;;;;;;;1.38;1.30;;;19.00;99.90;;;;;;5071438;28;20045;-78
2023/05/13 09:35:30;;;;;;;2.20;0.85;;;19.10;99.90;;;;;;5051137;28;20191;-78
2023/05/13 09:37:56;;;;;;;0.55;0.55;;;19.10;99.90;;;;;;5067898;28;20053;-78
2023/05/13 09:40:22;;;;;;;0.73;0.73;;;19.20;99.90;;;;;;5066737;28;20033;-77
2023/05/13 09:42:48;;;;;;;;;;;19.20;99.90;;;;;;5068432;28;20036;-79
2023/05/13 09:45:15;;;;;;;0.65;0.65;;;19.30;99.90;;;;;;5076053;28;19997;-78
2023/05/13 09:47:42;;;;;;;0.50;0.50;;;19.50;99.90;;;;;;5070449;28;20044;-79
2023/05/13 09:50:11;;;;;;;2.40;1.20;;;19.50;99.90;;;;;;5053212;28;20500;-78
2023/05/13 09:52:37;;;;;;;0.60;0.60;;;19.50;99.90;;;;;;5070654;28;20037;-79
2023/05/13 09:55:07;;;;;;;1.13;1.02;;;19.60;99.90;;;;;;5069730;28;20043;-79
2023/05/13 09:57:33;;;;;;;0.70;0.70;;;19.50;99.90;;;;;;5070033;28;20473;-79
2023/05/13 10:00:08;;;;;;;0.70;0.65;;;19.60;99.90;;;;;;5071342;28;20041;-77
2023/05/13 10:02:34;;;;;;;0.60;0.60;;;19.70;99.90;;;;;;5069684;28;20464;-78
2023/05/13 10:05:01;;;;;;;0.63;0.63;;;19.70;99.90;;;;;;5070638;28;20139;-77
2023/05/13 10:07:27;;;;;;;0.50;0.50;;;19.70;99.90;;;;;;5070311;28;20052;-78
2023/05/13 10:09:57;;;;;;;0.60;0.60;;;19.70;99.90;;;;;;5069776;28;20565;-78
2023/05/13 10:12:27;;;;;;;0.73;0.73;;;19.60;99.90;;;;;;5069983;28;20070;-78
2023/05/13 10:14:54;;;;;;;0.70;0.70;;;19.80;99.90;;;;;;5069962;28;20075;-79
2023/05/13 10:17:24;;;;;;;2.30;1.98;;;20.00;99.90;;;;;;5069533;28;20040;-77
2023/05/13 10:19:51;;;;;;;0.73;0.73;;;20.00;99.90;;;;;;5069172;28;20486;-78
2023/05/13 10:22:28;;;;;;;0.57;0.50;;;19.80;99.90;;;;;;5069949;28;20420;-77
2023/05/13 10:24:59;;;;;;;0.80;0.80;;;19.90;99.90;;;;;;5052743;28;20040;-78
2023/05/13 10:27:30;;;;;;;1.33;1.23;;;19.90;99.90;;;;;;5068668;28;20051;-79
2023/05/13 10:29:58;;;;;;;0.73;0.60;;;20.00;99.90;;;;;;5069324;28;20132;-80
2023/05/13 10:32:29;;;;;;;0.60;0.60;;;20.00;99.90;;;;;;5070404;28;20052;-78
2023/05/13 10:35:11;;;;;;;0.75;0.75;;;20.10;99.90;;;;;;5053744;28;20478;-78
2023/05/13 10:38:00;;;;;;;0.55;0.52;;;20.10;99.90;;;;;;5069793;28;20040;-79
2023/05/13 10:40:31;;;;;;;0.63;0.55;;;20.10;99.90;;;;;;5071997;28;20045;-79
2023/05/13 10:43:28;;;;;;;0.80;0.70;;;20.20;99.90;;;;;;5079556;28;20540;-79
2023/05/13 10:46:06;;;;;;;0.40;0.40;;;20.20;99.90;;;;;;5049488;28;20045;-78
2023/05/13 10:48:39;;;;;;;0.90;0.90;;;20.30;99.90;;;;;;5056934;28;20537;-78
2023/05/13 10:51:06;;;;;;;0.70;0.70;;;20.40;99.90;;;;;;5071905;28;20044;-77
2023/05/13 10:53:46;;;;;;;0.30;0.30;;;20.40;99.90;;;;;;5082518;28;20559;-77
2023/05/13 10:56:12;;;;;;;1.15;1.05;;;20.40;99.90;;;;;;5071255;28;20105;-78
2023/05/13 10:58:38;;;;;;;0.50;0.50;;;20.40;99.90;;;;;;5070443;28;20051;-79
2023/05/13 11:01:13;;;;;;;0.38;0.38;;;20.50;99.90;;;;;;5069971;28;20040;-78
2023/05/13 11:03:40;;;;;;;0.32;0.32;;;20.70;99.90;;;;;;5069228;28;20040;-79
2023/05/13 11:06:18;;;;;;;0.45;0.45;;;20.90;99.90;;;;;;5068799;28;20043;-77
2023/05/13 11:08:49;;;;;;;0.88;0.63;;;20.90;99.90;;;;;;5069105;28;20049;-78
2023/05/13 11:11:21;;;;;;;0.50;0.50;;;21.00;99.90;;;;;;5068445;28;20041;-78
2023/05/13 11:13:52;;;;;;;0.95;0.95;;;21.00;99.90;;;;;;5068820;28;20044;-78
2023/05/13 11:16:19;;;;;;;0.60;0.60;;;20.90;99.90;;;;;;5067994;28;20055;-78
2023/05/13 11:18:45;;;;;;;0.65;0.65;;;20.80;99.90;;;;;;5068624;28;20044;-78
2023/05/13 11:21:11;;;;;;;0.80;0.60;;;20.80;99.90;;;;;;5067756;28;20056;-78
2023/05/13 11:24:00;;;;;;;1.00;0.70;;;20.90;99.90;;;;;;5068689;28;20421;-79
2023/05/13 11:26:43;;;;;;;1.20;1.20;;;20.90;99.90;;;;;;5068637;28;20040;-78
2023/05/13 11:29:09;;;;;;;0.60;0.60;;;20.90;99.90;;;;;;5068892;28;20048;-79
2023/05/13 11:32:02;;;;;;;0.50;0.50;;;21.00;99.90;;;;;;5051551;28;20048;-78
2023/05/13 11:34:29;;;;;;;0.77;0.77;;;21.10;99.90;;;;;;5066433;28;20110;-78
2023/05/13 11:37:04;;;;;;;2.42;0.93;;;21.10;99.90;;;;;;5068579;28;20047;-79
2023/05/13 11:39:31;;;;;;;0.80;0.80;;;21.10;99.90;;;;;;5067950;28;20045;-78
2023/05/13 11:42:00;;;;;;;0.90;0.73;;;21.00;99.90;;;;;;5069543;28;20040;-79
2023/05/13 11:44:26;;;;;;;1.05;1.05;;;20.80;99.90;;;;;;5096891;28;20048;-78
2023/05/13 11:46:58;;;;;;;0.80;0.73;;;20.70;99.90;;;;;;5067570;28;20029;-79
2023/05/13 11:49:43;;;;;;;1.23;1.13;;;20.80;99.90;;;;;;5068508;28;20044;-78
2023/05/13 11:52:14;;;;;;;1.35;1.25;;;21.00;99.90;;;;;;5069471;28;20032;-78
2023/05/13 11:54:55;;;;;;;2.45;1.75;;;21.10;99.90;;;;;;5068582;28;20456;-78
2023/05/13 11:57:27;;;;;;;0.60;0.60;;;21.20;99.90;;;;;;5068364;28;20051;-77
2023/05/13 12:00:00;;;;;;;1.08;0.85;;;21.20;99.90;;;;;;5069193;28;20314;-78
2023/05/13 12:02:37;;;;;;;0.40;0.40;;;21.20;99.90;;;;;;5067677;28;20493;-78
2023/05/13 12:05:05;;;;;;;1.35;1.05;;;21.30;99.90;;;;;;5069009;28;20075;-78
2023/05/13 12:07:31;;;;;;;1.27;1.23;;;21.50;99.90;;;;;;5067612;28;20093;-79
2023/05/13 12:09:59;;;;;;;1.15;1.05;;;21.50;99.90;;;;;;5068234;28;20649;-78
2023/05/13 12:12:26;;;;;;;0.93;0.93;;;21.60;99.90;;;;;;5067675;28;20052;-79
2023/05/13 12:14:54;;;;;;;0.40;0.40;;;21.60;99.90;;;;;;5067014;28;20079;-78
2023/05/13 12:17:20;;;;;;;0.38;0.38;;;21.60;99.90;;;;;;5068417;28;20432;-78
2023/05/13 12:20:05;;;;;;;1.17;1.08;;;21.60;99.90;;;;;;5034769;28;20401;-79
2023/05/13 12:22:35;;;;;;;1.17;1.08;;;21.50;99.90;;;;;;5067573;28;21053;-78
2023/05/13 12:25:32;;;;;;;0.40;0.40;;;21.50;99.90;;;;;;5047695;28;20047;-78
2023/05/13 12:27:58;;;;;;;0.52;0.52;;;21.50;99.90;;;;;;5048439;28;20041;-77
2023/05/13 12:30:24;;;;;;;0.45;0.45;;;21.40;99.90;;;;;;5047909;28;20041;-78
2023/05/13 12:32:50;;;;;;;1.67;1.30;;;21.30;99.90;;;;;;5047936;28;20041;-78
2023/05/13 12:35:16;;;;;;;0.60;0.60;;;21.40;99.90;;;;;;5071670;28;20048;-77
2023/05/13 12:37:42;;;;;;;0.65;0.65;;;21.60;99.90;;;;;;5073631;28;20044;-79
2023/05/13 12:40:13;;;;;;;0.43;0.43;;;21.60;99.90;;;;;;5068399;28;20040;-79
2023/05/13 12:42:44;;;;;;;0.80;0.80;;;21.60;99.90;;;;;;5058310;28;20127;-78
2023/05/13 12:45:10;;;;;;;3.08;1.17;;;21.70;99.90;;;;;;5060087;28;20056;-78
2023/05/13 12:47:51;;;;;;;0.60;0.35;;;22.00;99.90;;;;;;5072423;28;20041;-77
2023/05/13 12:50:18;;;;;;;0.47;0.47;;;22.20;99.90;;;;;;5051474;28;20498;-79
2023/05/13 12:52:43;;;;;;;1.23;1.17;;;22.10;99.90;;;;;;5070521;28;20032;-78
2023/05/13 12:55:11;;;;;;;0.85;0.85;;;22.10;99.90;;;;;;5055228;28;20071;-78
2023/05/13 12:57:36;;;;;;;0.45;0.45;;;22.00;99.90;;;;;;5070886;28;20040;-79